Time;durP1;ratioP1;P1;durP2;ratioP2;P2;SDS_P1;SDS_P2;PMS_P1;PMS_P2;Temp;Humidity;BMP_temperature;BMP_pressure;BME280_temperature;BME280_humidity;BME280_pressure;Samples;Min_cycle;Max_cycle;Signal;HPM_P1;HPM_P2
2023/09/27 00:02:10;;;;;;;6.95;5.57;;;;;;;20.48;69.83;102046.81;5032464;28;20479;-71
2023/09/27 00:04:35;;;;;;;9.00;5.30;;;;;;;20.50;69.77;102056.47;5037513;28;20038;-73
2023/09/27 00:07:01;;;;;;;8.02;5.07;;;;;;;20.47;69.67;102059.19;5040472;28;20033;-73
2023/09/27 00:09:34;;;;;;;6.90;5.50;;;;;;;20.43;70.14;102060.06;5035063;28;20394;-74
2023/09/27 00:12:04;;;;;;;7.97;5.40;;;;;;;20.44;69.96;102059.19;5033011;28;20034;-71
2023/09/27 00:14:29;;;;;;;7.00;5.10;;;;;;;20.43;70.01;102059.22;5032199;28;20048;-74
2023/09/27 00:16:58;;;;;;;6.68;4.97;;;;;;;20.40;70.48;102057.47;5032293;28;20057;-73
2023/09/27 00:19:24;;;;;;;9.27;5.80;;;;;;;20.39;70.79;102050.41;5031580;28;20033;-74
2023/09/27 00:21:49;;;;;;;8.13;5.45;;;;;;;20.40;71.15;102052.16;5031907;28;20123;-72
2023/09/27 00:24:17;;;;;;;9.63;5.80;;;;;;;20.39;71.27;102053.06;5032040;28;20026;-71
2023/09/27 00:26:43;;;;;;;9.07;5.45;;;;;;;20.48;70.77;102047.69;5031730;28;20029;-71
2023/09/27 00:29:14;;;;;;;8.85;5.70;;;;;;;20.42;71.23;102045.09;5029680;28;20386;-71
2023/09/27 00:31:43;;;;;;;8.38;5.70;;;;;;;20.44;71.07;102047.72;5031133;28;20046;-71
2023/09/27 00:34:11;;;;;;;11.52;5.65;;;;;;;20.45;71.04;102039.75;5031832;28;20053;-71
2023/09/27 00:36:36;;;;;;;9.00;5.47;;;;;;;20.46;70.96;102062.72;5031363;28;20091;-71
2023/09/27 00:39:02;;;;;;;8.80;5.57;;;;;;;20.43;71.43;102067.16;5031807;28;20526;-71
2023/09/27 00:41:27;;;;;;;8.00;5.38;;;;;;;20.41;71.24;102061.00;5031089;28;20037;-73
2023/09/27 00:43:53;;;;;;;7.07;4.80;;;;;;;20.37;71.15;102048.69;5031884;28;20517;-72
2023/09/27 00:46:19;;;;;;;7.20;4.68;;;;;;;20.35;70.97;102030.16;5031793;28;20372;-72
2023/09/27 00:48:44;;;;;;;7.00;5.10;;;;;;;20.29;71.04;102037.22;5031263;28;20044;-71
2023/09/27 00:51:13;;;;;;;8.55;5.10;;;;;;;20.25;71.37;102036.34;5034676;28;20028;-73
2023/09/27 00:53:41;;;;;;;8.45;5.20;;;;;;;20.26;71.55;102032.81;5032426;28;20038;-73
2023/09/27 00:56:08;;;;;;;12.35;5.63;;;;;;;20.27;71.41;102040.75;5031540;28;20029;-74
2023/09/27 00:58:40;;;;;;;8.63;5.68;;;;;;;20.22;72.48;102039.03;5030971;28;20048;-73
2023/09/27 01:01:06;;;;;;;10.65;5.22;;;;;;;20.27;72.41;102048.72;5031683;28;20126;-73
2023/09/27 01:03:32;;;;;;;7.45;5.32;;;;;;;20.36;72.41;102062.81;5030709;28;20037;-74
2023/09/27 01:05:58;;;;;;;8.00;5.03;;;;;;;20.08;73.77;102049.72;5031280;28;20072;-73
2023/09/27 01:08:23;;;;;;;9.35;5.10;;;;;;;20.16;72.67;102044.38;5030764;28;20034;-74
2023/09/27 01:10:51;;;;;;;7.68;4.97;;;;;;;20.12;71.84;102048.84;5030719;28;20099;-72
2023/09/27 01:13:17;;;;;;;6.88;4.50;;;;;;;20.07;71.84;102044.44;5031516;28;20029;-73
2023/09/27 01:15:45;;;;;;;9.27;5.30;;;;;;;19.97;72.19;102048.94;5030710;28;20425;-72
2023/09/27 01:18:11;;;;;;;9.32;5.30;;;;;;;19.83;72.62;102062.25;5031104;28;20044;-73
2023/09/27 01:20:36;;;;;;;6.70;4.60;;;;;;;19.80;72.45;102061.41;5029078;28;20465;-73
2023/09/27 01:23:05;;;;;;;7.85;5.32;;;;;;;19.73;72.79;102059.66;5030609;28;20499;-73
2023/09/27 01:25:38;;;;;;;9.43;5.50;;;;;;;19.71;72.64;102048.19;5030271;28;20437;-73
2023/09/27 01:28:10;;;;;;;7.60;4.82;;;;;;;19.66;72.66;102050.00;5030561;28;20033;-73
2023/09/27 01:30:38;;;;;;;7.70;4.65;;;;;;;19.63;73.08;102044.75;5029989;28;20534;-73
2023/09/27 01:33:05;;;;;;;8.25;4.75;;;;;;;19.63;72.83;102053.56;5030675;28;20060;-73
2023/09/27 01:35:36;;;;;;;7.90;5.15;;;;;;;19.59;72.91;102051.78;5030345;28;20124;-73
2023/09/27 01:38:06;;;;;;;7.43;5.45;;;;;;;19.46;73.94;102058.03;5030575;28;20495;-72
2023/09/27 01:40:37;;;;;;;8.70;5.50;;;;;;;19.49;73.55;102051.84;5029376;28;20049;-73
2023/09/27 01:43:03;;;;;;;9.50;5.10;;;;;;;19.46;73.31;102065.09;5029034;28;20041;-73
2023/09/27 01:45:32;;;;;;;9.32;5.32;;;;;;;19.38;73.77;102073.03;5030214;28;20120;-74
2023/09/27 01:47:59;;;;;;;7.93;5.30;;;;;;;19.33;74.02;102078.31;5030753;28;20033;-72
2023/09/27 01:50:25;;;;;;;8.27;5.35;;;;;;;19.33;74.02;102074.81;5030018;28;20034;-73
2023/09/27 01:52:51;;;;;;;9.60;5.57;;;;;;;19.31;73.75;102073.94;5030469;28;20475;-72
2023/09/27 01:55:16;;;;;;;8.85;5.15;;;;;;;19.23;74.12;102078.34;5030296;28;20116;-71
2023/09/27 01:57:45;;;;;;;8.02;5.22;;;;;;;19.23;74.00;102076.59;5029746;28;20121;-72
2023/09/27 02:00:14;;;;;;;8.07;5.43;;;;;;;19.23;73.97;102075.72;5030331;28;20083;-71
2023/09/27 02:02:42;;;;;;;6.45;5.13;;;;;;;19.22;73.84;102076.59;5029739;28;20041;-71
2023/09/27 02:05:09;;;;;;;6.85;5.05;;;;;;;19.18;73.85;102083.66;5030434;28;20087;-71
2023/09/27 02:07:37;;;;;;;8.23;5.40;;;;;;;19.23;73.79;102078.34;5029773;28;20491;-71
2023/09/27 02:10:03;;;;;;;8.23;5.15;;;;;;;19.20;73.83;102078.38;5030353;28;20025;-71
2023/09/27 02:12:28;;;;;;;8.13;5.30;;;;;;;19.17;73.86;102078.38;5028115;28;20056;-71
2023/09/27 02:14:53;;;;;;;6.78;4.90;;;;;;;19.17;73.80;102068.69;5030208;28;20031;-71
2023/09/27 02:17:19;;;;;;;8.73;5.25;;;;;;;19.17;73.72;102057.22;5030106;28;20025;-71
2023/09/27 02:19:50;;;;;;;8.75;5.07;;;;;;;19.11;73.87;102068.69;5029850;28;20525;-71
2023/09/27 02:22:18;;;;;;;7.93;5.07;;;;;;;19.05;73.82;102068.72;5029883;28;20060;-71
2023/09/27 02:24:44;;;;;;;8.10;4.80;;;;;;;19.06;73.96;102057.28;5029358;28;20037;-71
2023/09/27 02:27:10;;;;;;;7.55;5.32;;;;;;;19.07;73.79;102058.16;5030020;28;20028;-71
2023/09/27 02:29:37;;;;;;;8.63;5.20;;;;;;;19.01;73.94;102046.72;5029521;28;20037;-70
2023/09/27 02:32:04;;;;;;;8.13;5.40;;;;;;;18.95;74.13;102038.81;5029537;28;20461;-72
2023/09/27 02:34:36;;;;;;;10.65;5.82;;;;;;;18.92;74.08;102037.91;5032126;28;20034;-72
2023/09/27 02:37:01;;;;;;;10.60;6.28;;;;;;;18.86;74.54;102054.66;5034766;28;20499;-72
2023/09/27 02:39:28;;;;;;;7.70;5.75;;;;;;;18.80;75.34;102056.44;5033418;28;20032;-74
2023/09/27 02:41:55;;;;;;;9.45;5.38;;;;;;;18.82;74.93;102060.84;5029748;28;20444;-74
2023/09/27 02:44:21;;;;;;;8.18;5.68;;;;;;;18.81;74.76;102061.72;5030661;28;20033;-74
2023/09/27 02:46:52;;;;;;;6.88;5.00;;;;;;;18.82;74.36;102060.84;5029841;28;20439;-74
2023/09/27 02:49:20;;;;;;;8.27;6.00;;;;;;;18.76;74.93;102067.91;5030026;28;20070;-73
2023/09/27 02:51:52;;;;;;;8.80;6.00;;;;;;;18.74;75.21;102075.81;5029366;28;20112;-73
2023/09/27 02:54:27;;;;;;;9.95;5.47;;;;;;;18.77;74.72;102078.47;5033395;28;20102;-73
2023/09/27 02:56:59;;;;;;;9.48;6.32;;;;;;;18.69;75.50;102090.81;5033179;28;20029;-73
2023/09/27 02:59:24;;;;;;;11.50;5.95;;;;;;;18.64;76.13;102098.72;5033297;28;20125;-73
2023/09/27 03:01:52;;;;;;;8.95;5.68;;;;;;;18.73;75.69;102086.38;5033438;28;20117;-73
2023/09/27 03:04:18;;;;;;;8.10;5.30;;;;;;;18.77;75.53;102083.75;5033469;28;20060;-73
2023/09/27 03:06:43;;;;;;;8.55;5.45;;;;;;;18.83;75.38;102093.44;5032067;28;20491;-73
2023/09/27 03:09:09;;;;;;;10.15;6.10;;;;;;;18.71;75.82;102093.44;5033721;28;20505;-74
2023/09/27 03:11:39;;;;;;;9.10;5.47;;;;;;;18.69;75.75;102082.88;5033414;28;20037;-74
2023/09/27 03:14:07;;;;;;;10.20;5.82;;;;;;;18.77;75.42;102072.31;5033738;28;20033;-74
2023/09/27 03:16:37;;;;;;;8.02;5.57;;;;;;;18.80;75.19;102074.94;5033136;28;20073;-74
2023/09/27 03:19:02;;;;;;;11.68;5.85;;;;;;;18.75;75.59;102080.22;5033479;28;20394;-73
2023/09/27 03:21:28;;;;;;;10.52;5.80;;;;;;;18.78;75.67;102082.00;5033494;28;20033;-73
2023/09/27 03:23:54;;;;;;;8.38;5.35;;;;;;;18.81;75.20;102085.50;5033680;28;20125;-73
2023/09/27 03:26:23;;;;;;;8.25;5.80;;;;;;;18.74;75.64;102080.22;5033501;28;20034;-74
2023/09/27 03:28:51;;;;;;;9.68;5.55;;;;;;;18.75;75.47;102084.63;5033439;28;20483;-74
2023/09/27 03:31:23;;;;;;;7.90;5.20;;;;;;;18.77;75.24;102080.22;5036695;28;20475;-73
2023/09/27 03:33:48;;;;;;;8.57;5.20;;;;;;;18.78;75.11;102077.59;5037898;28;20041;-73
2023/09/27 03:36:14;;;;;;;9.32;5.72;;;;;;;18.74;75.52;102088.16;5035914;28;20113;-74
2023/09/27 03:38:43;;;;;;;9.48;6.25;;;;;;;18.77;75.37;102090.81;5033911;28;20172;-73
2023/09/27 03:41:14;;;;;;;9.55;6.03;;;;;;;18.80;75.33;102090.78;5034062;28;20344;-73
2023/09/27 03:43:42;;;;;;;9.95;6.22;;;;;;;18.66;75.81;102097.84;5032462;28;20057;-72
2023/09/27 03:46:08;;;;;;;10.38;6.07;;;;;;;18.70;75.39;102097.84;5032795;28;20036;-73
2023/09/27 03:48:34;;;;;;;9.35;6.15;;;;;;;18.73;75.65;102089.03;5032340;28;20037;-73
2023/09/27 03:51:02;;;;;;;11.18;6.05;;;;;;;18.76;75.43;102079.34;5032523;28;20119;-73
2023/09/27 03:53:28;;;;;;;11.73;6.35;;;;;;;18.75;75.18;102072.31;5030828;28;20034;-73
2023/09/27 03:55:53;;;;;;;11.63;6.45;;;;;;;18.75;75.18;102068.78;5032913;28;20033;-72
2023/09/27 03:58:19;;;;;;;10.90;6.18;;;;;;;18.76;75.43;102067.91;5032598;28;20112;-72
2023/09/27 04:00:44;;;;;;;11.52;6.55;;;;;;;18.75;75.42;102074.06;5031673;28;20033;-72
2023/09/27 04:03:20;;;;;;;13.13;6.50;;;;;;;18.71;75.55;102067.91;5032358;28;20060;-73
2023/09/27 04:05:45;;;;;;;9.93;6.20;;;;;;;18.71;75.49;102070.56;5031957;28;20029;-73
2023/09/27 04:08:17;;;;;;;9.52;6.03;;;;;;;18.71;75.53;102080.25;5032607;28;20030;-72
2023/09/27 04:10:49;;;;;;;9.73;6.38;;;;;;;18.71;75.63;102078.47;5031851;28;20040;-72
2023/09/27 04:13:14;;;;;;;9.27;6.47;;;;;;;18.79;75.66;102070.53;5032240;28;20390;-72
2023/09/27 04:15:39;;;;;;;10.13;6.20;;;;;;;18.81;75.66;102058.19;5031932;28;20091;-71
2023/09/27 04:18:11;;;;;;;8.82;6.03;;;;;;;18.82;75.44;102062.59;5032199;28;20037;-70
2023/09/27 04:20:36;;;;;;;12.40;7.35;;;;;;;18.76;75.84;102066.13;5031907;28;20037;-70
2023/09/27 04:23:03;;;;;;;12.02;6.68;;;;;;;18.82;75.49;102067.88;5032167;28;20082;-70
2023/09/27 04:25:28;;;;;;;11.25;6.68;;;;;;;18.81;75.46;102060.84;5031823;28;20056;-70
2023/09/27 04:28:04;;;;;;;11.90;7.07;;;;;;;18.80;75.68;102067.88;5032145;28;20029;-72
2023/09/27 04:30:39;;;;;;;12.05;7.30;;;;;;;18.78;75.58;102063.50;5031316;28;20402;-70
2023/09/27 04:33:10;;;;;;;;;;;;;;;18.71;75.89;102059.09;5032448;28;20060;-71
2023/09/27 04:35:35;;;;;;;10.45;7.00;;;;;;;18.63;75.81;102052.06;5029888;28;20023;-70
2023/09/27 04:38:10;;;;;;;11.00;7.30;;;;;;;18.51;76.18;102061.72;5032273;28;20037;-70
2023/09/27 04:40:38;;;;;;;13.45;7.43;;;;;;;18.45;76.26;102067.88;5032061;28;20087;-71
2023/09/27 04:43:04;;;;;;;12.45;7.10;;;;;;;18.39;76.55;102059.97;5032038;28;20120;-70
2023/09/27 04:45:41;;;;;;;9.30;6.22;;;;;;;18.39;76.46;102048.53;5031775;28;20459;-70
2023/09/27 04:48:09;;;;;;;11.20;6.75;;;;;;;18.35;76.40;102058.22;5031670;28;20037;-71
2023/09/27 04:50:39;;;;;;;11.70;7.05;;;;;;;18.33;76.37;102048.53;5031004;28;20449;-70
2023/09/27 04:53:05;;;;;;;13.63;7.35;;;;;;;18.28;76.27;102034.44;5031573;28;20099;-71
2023/09/27 04:55:30;;;;;;;11.82;7.22;;;;;;;18.32;76.25;102029.16;5029516;28;20033;-70
2023/09/27 04:58:02;;;;;;;13.43;7.65;;;;;;;18.32;76.46;102047.63;5031688;28;20033;-70
2023/09/27 05:00:27;;;;;;;14.18;7.93;;;;;;;18.38;76.86;102044.13;5030746;28;20506;-71
2023/09/27 05:02:52;;;;;;;12.57;7.38;;;;;;;18.43;76.87;102037.94;5031023;28;20100;-70
2023/09/27 05:05:18;;;;;;;12.15;7.25;;;;;;;18.46;77.02;102034.44;5032140;28;20120;-71
2023/09/27 05:07:43;;;;;;;13.38;7.43;;;;;;;18.49;76.88;102029.16;5031821;28;20037;-71
2023/09/27 05:10:09;;;;;;;15.93;8.00;;;;;;;18.42;77.09;102030.91;5031933;28;20391;-71
2023/09/27 05:12:38;;;;;;;13.10;7.80;;;;;;;18.43;76.85;102031.78;5030678;28;20068;-71
2023/09/27 05:15:10;;;;;;;12.30;7.60;;;;;;;18.45;76.83;102037.97;5030451;28;20056;-71
2023/09/27 05:17:35;;;;;;;12.60;7.80;;;;;;;18.49;76.94;102034.44;5030465;28;20047;-70
2023/09/27 05:20:10;;;;;;;13.50;7.63;;;;;;;18.55;76.92;102027.41;5030824;28;20033;-70
2023/09/27 05:22:40;;;;;;;15.32;8.65;;;;;;;18.55;77.11;102031.81;5030162;28;20061;-70
2023/09/27 05:25:06;;;;;;;14.13;7.90;;;;;;;18.58;77.41;102024.78;5031199;28;20026;-70
2023/09/27 05:27:31;;;;;;;15.27;8.40;;;;;;;18.60;77.50;102022.16;5030065;28;20037;-70
2023/09/27 05:29:57;;;;;;;13.88;7.53;;;;;;;18.62;77.33;102028.28;5031114;28;20033;-71
2023/09/27 05:32:28;;;;;;;11.68;7.60;;;;;;;18.66;77.49;102022.13;5030228;28;20085;-72
2023/09/27 05:35:00;;;;;;;14.77;8.27;;;;;;;18.66;77.36;102018.63;5030986;28;20106;-70
2023/09/27 05:37:28;;;;;;;14.88;8.02;;;;;;;18.66;77.48;102029.19;5030226;28;20469;-70
2023/09/27 05:39:54;;;;;;;15.27;8.43;;;;;;;18.66;77.56;102029.19;5028873;28;20029;-72
2023/09/27 05:42:20;;;;;;;15.02;8.60;;;;;;;18.69;77.59;102037.09;5030272;28;20053;-70
2023/09/27 05:44:45;;;;;;;15.65;8.90;;;;;;;18.66;77.93;102035.34;5029932;28;20049;-70
2023/09/27 05:47:10;;;;;;;17.55;9.30;;;;;;;18.74;77.80;102048.53;5030678;28;20030;-71
2023/09/27 05:49:36;;;;;;;18.67;9.63;;;;;;;18.73;78.39;102047.63;5030331;28;20038;-71
2023/09/27 05:52:02;;;;;;;15.52;8.60;;;;;;;18.79;78.13;102039.69;5030374;28;20091;-72
2023/09/27 05:54:30;;;;;;;18.98;9.05;;;;;;;18.83;77.92;102040.59;5029431;28;20422;-71
2023/09/27 05:57:02;;;;;;;17.70;9.65;;;;;;;18.84;78.13;102040.59;5030901;28;20180;-72
2023/09/27 05:59:28;;;;;;;18.42;9.63;;;;;;;18.91;78.11;102039.69;5030046;28;20037;-72
2023/09/27 06:01:53;;;;;;;18.10;9.35;;;;;;;18.96;77.90;102034.41;5030481;28;20025;-72
2023/09/27 06:04:21;;;;;;;19.55;10.00;;;;;;;18.93;78.20;102027.34;5032082;28;20033;-72
2023/09/27 06:06:48;;;;;;;19.23;9.73;;;;;;;18.98;78.18;102037.91;5031325;28;20633;-70
2023/09/27 06:09:13;;;;;;;16.80;9.25;;;;;;;19.01;78.20;102046.72;5033351;28;20494;-72
2023/09/27 06:11:39;;;;;;;18.45;10.18;;;;;;;19.06;78.36;102033.47;5029865;28;20091;-72
2023/09/27 06:14:10;;;;;;;21.33;10.40;;;;;;;19.10;78.08;102031.69;5030546;28;20156;-72
2023/09/27 06:16:39;;;;;;;19.95;10.77;;;;;;;19.13;78.31;102034.34;5028463;28;20040;-72
2023/09/27 06:19:09;;;;;;;17.58;9.35;;;;;;;19.24;78.42;102038.69;5030566;28;20084;-72
2023/09/27 06:21:35;;;;;;;21.23;11.00;;;;;;;19.14;79.27;102031.69;5029499;28;20433;-72
2023/09/27 06:24:00;;;;;;;24.20;10.98;;;;;;;19.21;79.33;102032.56;5030364;28;20082;-72
2023/09/27 06:26:32;;;;;;;16.85;9.82;;;;;;;19.43;78.48;102029.81;5034679;28;20032;-72
2023/09/27 06:28:58;;;;;;;19.48;9.88;;;;;;;19.52;77.81;102005.09;5030002;28;20063;-72
2023/09/27 06:31:23;;;;;;;20.70;10.55;;;;;;;19.33;78.78;101993.69;5032265;28;20029;-72
2023/09/27 06:33:49;;;;;;;20.25;10.80;;;;;;;19.54;78.49;102002.44;5029809;28;20038;-71
2023/09/27 06:36:16;;;;;;;17.52;9.68;;;;;;;19.66;78.75;102000.63;5030035;28;20025;-71
2023/09/27 06:38:41;;;;;;;18.52;9.98;;;;;;;19.77;78.79;102003.19;5029343;28;20088;-71
2023/09/27 06:41:08;;;;;;;16.77;9.85;;;;;;;19.74;79.13;101995.28;5029681;28;20561;-72
2023/09/27 06:43:34;;;;;;;20.88;10.10;;;;;;;19.89;79.02;102015.44;5028925;28;20044;-72
2023/09/27 06:46:01;;;;;;;20.08;10.20;;;;;;;19.75;79.89;102052.59;5031775;28;20029;-72
2023/09/27 06:48:27;;;;;;;18.15;10.27;;;;;;;20.03;79.46;102053.31;5029505;28;20029;-73
2023/09/27 06:50:53;;;;;;;19.85;10.18;;;;;;;19.62;79.79;102057.09;5029972;28;20029;-73
2023/09/27 06:53:21;;;;;;;20.83;10.50;;;;;;;19.64;81.04;102068.50;5029492;28;20041;-73
2023/09/27 06:55:49;;;;;;;17.52;9.68;;;;;;;20.12;80.13;102071.78;5029603;28;20171;-69
2023/09/27 06:58:15;;;;;;;22.15;10.40;;;;;;;19.95;79.27;102089.53;5029494;28;20037;-73
2023/09/27 07:00:41;;;;;;;21.15;10.77;;;;;;;20.21;79.39;102092.88;5028859;28;20088;-69
2023/09/27 07:03:06;;;;;;;22.70;10.43;;;;;;;20.62;78.98;102100.53;5029296;28;20030;-73
2023/09/27 07:05:33;;;;;;;17.83;9.50;;;;;;;20.93;77.47;102099.38;5028823;28;20044;-72
2023/09/27 07:07:59;;;;;;;30.73;10.55;;;;;;;20.80;75.95;102102.19;5029269;28;20415;-71
2023/09/27 07:10:24;;;;;;;38.13;11.18;;;;;;;20.67;75.95;102102.25;5028660;28;20040;-71
2023/09/27 07:12:50;;;;;;;26.00;10.35;;;;;;;20.67;76.44;102107.56;5029418;28;20038;-70
2023/09/27 07:15:19;;;;;;;23.35;9.93;;;;;;;20.85;75.87;102095.94;5029465;28;20033;-70
2023/09/27 07:17:44;;;;;;;20.58;10.50;;;;;;;20.83;76.36;102105.66;5029133;28;20044;-71
2023/09/27 07:22:44;;;;;;;15.40;8.90;;;;;;;21.02;76.45;102099.28;5028551;28;20033;-71
2023/09/27 07:25:14;;;;;;;15.98;9.75;;;;;;;21.11;76.31;102105.38;5029079;28;20029;-70
2023/09/27 07:27:41;;;;;;;16.27;9.73;;;;;;;21.18;75.96;102089.41;5028466;28;20394;-71
2023/09/27 07:30:10;;;;;;;15.32;8.20;;;;;;;21.45;75.98;102083.81;5029270;28;20141;-70
2023/09/27 07:32:44;;;;;;;14.15;8.38;;;;;;;21.50;75.51;102078.44;5028603;28;20033;-71
2023/09/27 07:35:10;;;;;;;14.48;8.90;;;;;;;21.45;74.20;102097.06;5029513;28;20036;-71
2023/09/27 07:37:45;;;;;;;16.58;9.50;;;;;;;21.27;74.38;102094.63;5028911;28;20609;-71
2023/09/27 07:40:17;;;;;;;12.90;9.23;;;;;;;21.40;74.37;102090.06;5032113;28;20047;-71
2023/09/27 07:42:44;;;;;;;13.82;8.90;;;;;;;21.52;74.42;102100.53;5032258;28;20052;-72
2023/09/27 07:45:22;;;;;;;16.27;9.27;;;;;;;21.66;74.35;102095.03;5032830;28;20095;-71
2023/09/27 07:48:08;;;;;;;15.55;10.20;;;;;;;21.79;73.41;102102.81;5032741;28;20426;-71
2023/09/27 07:50:37;;;;;;;15.05;9.65;;;;;;;21.98;73.62;102091.97;5031721;28;20038;-70
2023/09/27 07:53:08;;;;;;;19.23;9.57;;;;;;;22.23;73.47;102098.66;5034252;28;20440;-70
2023/09/27 07:55:43;;;;;;;17.00;10.40;;;;;;;22.55;70.13;102092.84;5032406;28;20053;-71
2023/09/27 07:58:14;;;;;;;19.95;10.57;;;;;;;22.60;69.55;102097.19;5033093;28;20033;-71
2023/09/27 08:00:40;;;;;;;18.42;10.85;;;;;;;22.53;70.18;102100.84;5031988;28;20083;-71
2023/09/27 08:03:10;;;;;;;19.30;11.18;;;;;;;22.91;68.61;102091.34;5035488;28;20076;-71
2023/09/27 08:05:42;;;;;;;21.27;11.80;;;;;;;22.48;68.64;102094.72;5033416;28;20042;-71
2023/09/27 08:08:12;;;;;;;20.25;11.40;;;;;;;22.48;69.73;102088.53;5032527;28;20041;-71
2023/09/27 08:10:45;;;;;;;19.67;11.05;;;;;;;22.63;68.90;102082.94;5023111;28;20402;-70
2023/09/27 08:13:15;;;;;;;18.05;10.95;;;;;;;22.42;69.43;102086.84;5032501;28;20037;-71
2023/09/27 08:15:49;;;;;;;16.77;10.57;;;;;;;22.32;69.81;102087.03;5031814;28;20069;-71
2023/09/27 08:18:18;;;;;;;18.42;11.45;;;;;;;22.19;70.44;102097.84;5032156;28;20032;-71
2023/09/27 08:20:43;;;;;;;21.52;11.18;;;;;;;21.80;72.39;102114.31;5031344;28;20501;-71
2023/09/27 08:23:21;;;;;;;18.42;10.77;;;;;;;22.00;72.62;102108.75;5031917;28;20029;-71
2023/09/27 08:25:53;;;;;;;19.67;11.40;;;;;;;21.80;72.97;102101.03;5031469;28;20423;-71
2023/09/27 08:28:21;;;;;;;17.00;10.65;;;;;;;22.01;72.95;102097.25;5032135;28;20030;-72
2023/09/27 08:30:57;;;;;;;16.33;10.40;;;;;;;22.25;70.84;102084.47;5031197;28;20039;-71
2023/09/27 08:33:31;;;;;;;18.35;10.80;;;;;;;22.11;71.95;102088.22;5031532;28;20132;-71
2023/09/27 08:36:01;;;;;;;16.77;10.88;;;;;;;22.11;71.75;102080.25;5031555;28;20061;-70
2023/09/27 08:38:26;;;;;;;15.85;10.10;;;;;;;22.13;71.99;102059.88;5031234;28;20079;-72
2023/09/27 08:40:56;;;;;;;17.02;10.50;;;;;;;22.12;72.01;102072.28;5031264;28;20038;-71
2023/09/27 08:43:22;;;;;;;18.08;11.07;;;;;;;22.04;72.48;102079.47;5031379;28;20068;-72
2023/09/27 08:45:51;;;;;;;14.98;10.13;;;;;;;22.27;71.49;102076.47;5031396;28;20446;-72
2023/09/27 08:48:22;;;;;;;17.38;10.25;;;;;;;22.34;71.22;102082.56;5031952;28;20550;-72
2023/09/27 08:50:49;;;;;;;15.32;9.75;;;;;;;22.43;71.10;102098.38;5029707;28;20056;-77
2023/09/27 08:53:17;;;;;;;13.55;9.57;;;;;;;22.47;71.09;102085.00;5031186;28;20029;-72
2023/09/27 08:55:52;;;;;;;17.17;10.10;;;;;;;22.58;71.19;102091.00;5031163;28;20033;-72
2023/09/27 08:58:19;;;;;;;14.70;9.98;;;;;;;22.56;70.37;102084.84;5031464;28;20041;-72
2023/09/27 09:00:54;;;;;;;16.77;10.05;;;;;;;22.78;70.36;102097.78;5030372;28;20128;-70
2023/09/27 09:03:23;;;;;;;17.85;10.35;;;;;;;22.72;69.99;102101.44;5031434;28;20025;-73
2023/09/27 09:05:51;;;;;;;13.90;10.05;;;;;;;23.02;69.49;102108.88;5030902;28;20034;-70
2023/09/27 09:08:19;;;;;;;14.45;9.73;;;;;;;23.19;68.31;102103.22;5030892;28;20052;-69
2023/09/27 09:10:53;;;;;;;14.55;9.60;;;;;;;23.15;68.12;102093.56;5030426;28;20029;-70
2023/09/27 09:13:24;;;;;;;14.38;9.45;;;;;;;23.15;68.46;102096.22;5030954;28;20037;-70
2023/09/27 09:15:55;;;;;;;14.98;9.20;;;;;;;23.18;68.37;102084.63;5030781;28;20033;-72
2023/09/27 09:18:36;;;;;;;16.08;9.90;;;;;;;23.20;68.32;102093.44;5030563;28;20060;-71
2023/09/27 09:21:08;;;;;;;15.38;8.95;;;;;;;23.21;68.22;102089.88;5030885;28;20117;-69
2023/09/27 09:23:35;;;;;;;12.68;8.63;;;;;;;23.35;67.30;102082.53;5030456;28;20072;-73
2023/09/27 09:26:12;;;;;;;15.23;9.43;;;;;;;23.35;67.60;102075.41;5030965;28;20033;-73
2023/09/27 09:28:57;;;;;;;15.30;9.55;;;;;;;23.34;66.82;102067.47;5030229;28;20038;-72
2023/09/27 09:31:24;;;;;;;14.85;9.23;;;;;;;23.43;67.19;102070.78;5030251;28;20064;-72
2023/09/27 09:34:05;;;;;;;13.00;9.65;;;;;;;23.47;66.67;102074.31;5031279;28;20037;-73
2023/09/27 09:36:34;;;;;;;15.43;10.50;;;;;;;23.52;66.62;102074.22;5031372;28;20490;-70
2023/09/27 09:39:04;;;;;;;15.85;10.27;;;;;;;23.41;67.10;102077.06;5031422;28;20037;-70
2023/09/27 09:41:46;;;;;;;14.82;9.02;;;;;;;23.67;66.03;102071.19;5030031;28;20039;-70
2023/09/27 09:44:19;;;;;;;18.33;9.68;;;;;;;;;;5030430;28;20521;-72
2023/09/27 09:46:56;;;;;;;15.82;9.90;;;;;;;23.91;64.77;102072.47;5029980;28;20113;-72
2023/09/27 09:49:22;;;;;;;16.02;10.57;;;;;;;23.71;66.26;102070.25;5030425;28;20130;-73
2023/09/27 09:51:52;;;;;;;15.00;10.48;;;;;;;23.66;65.60;102056.16;5030437;28;20033;-72
2023/09/27 09:54:37;;;;;;;14.32;10.00;;;;;;;23.92;64.79;102052.88;5030165;28;20041;-72
2023/09/27 09:57:10;;;;;;;15.27;10.05;;;;;;;23.72;65.87;102042.72;5030526;28;20453;-74
2023/09/27 10:00:16;;;;;;;16.33;10.63;;;;;;;23.70;66.17;102045.41;5029958;28;20580;-71
2023/09/27 10:02:53;;;;;;;16.65;10.23;;;;;;;23.61;66.25;102008.31;5029282;28;20260;-70
2023/09/27 10:05:22;;;;;;;18.70;11.20;;;;;;;23.19;67.62;101980.84;5030216;28;20160;-72
2023/09/27 10:07:56;;;;;;;16.52;10.48;;;;;;;22.95;68.04;101982.22;5029841;28;20182;-73
2023/09/27 10:10:22;;;;;;;15.35;10.88;;;;;;;23.28;67.33;101987.75;5029630;28;20025;-73
2023/09/27 10:12:53;;;;;;;16.35;10.38;;;;;;;23.57;66.38;101982.69;5030927;28;20505;-70
2023/09/27 10:15:22;;;;;;;14.70;9.18;;;;;;;23.76;65.57;101994.66;5030081;28;20041;-70
2023/09/27 10:18:28;;;;;;;17.88;10.25;;;;;;;23.90;65.85;101977.50;5029238;28;20491;-70
2023/09/27 10:21:14;;;;;;;20.05;11.18;;;;;;;23.60;65.95;101984.41;5028910;28;20052;-73
2023/09/27 10:23:55;;;;;;;16.70;10.27;;;;;;;23.11;67.19;101985.47;5029144;28;20037;-73
2023/09/27 10:26:34;;;;;;;16.55;11.05;;;;;;;23.52;66.26;101991.69;5029449;28;20033;-72
2023/09/27 10:29:23;;;;;;;17.08;10.18;;;;;;;23.64;66.80;101989.63;5029395;28;20033;-73
2023/09/27 10:32:03;;;;;;;14.50;10.50;;;;;;;23.67;66.38;101972.69;5028539;28;20037;-72
2023/09/27 10:34:28;;;;;;;15.88;10.15;;;;;;;23.74;66.59;101964.53;5029138;28;20033;-72
2023/09/27 10:36:54;;;;;;;14.52;9.80;;;;;;;23.86;65.94;101982.00;5029717;28;20095;-73
2023/09/27 10:39:20;;;;;;;14.38;9.50;;;;;;;24.01;65.56;101975.44;5029632;28;20033;-72
2023/09/27 10:41:53;;;;;;;14.43;9.20;;;;;;;23.64;65.25;101978.09;5028887;28;20026;-72
2023/09/27 10:44:37;;;;;;;14.43;8.88;;;;;;;23.54;65.41;101972.13;5029267;28;20136;-72
2023/09/27 10:47:08;;;;;;;14.23;9.20;;;;;;;23.35;65.68;101984.06;5029116;28;20033;-71
2023/09/27 10:52:20;;;;;;;12.68;8.95;;;;;;;23.82;64.91;101975.00;5028992;28;20033;-70
2023/09/27 10:54:48;;;;;;;15.63;8.90;;;;;;;24.30;63.25;101972.94;5028951;28;20037;-71
2023/09/27 10:57:21;;;;;;;16.80;10.43;;;;;;;23.76;63.74;101969.81;5029192;28;20555;-72
2023/09/27 10:59:51;;;;;;;15.77;10.00;;;;;;;23.76;64.66;101967.16;5028752;28;20038;-72
2023/09/27 11:02:27;;;;;;;14.00;9.82;;;;;;;24.16;63.59;101962.59;5028935;28;20055;-72
2023/09/27 11:04:55;;;;;;;17.15;9.43;;;;;;;24.36;63.37;101964.78;5029651;28;20025;-72
2023/09/27 11:07:41;;;;;;;13.48;9.50;;;;;;;24.54;63.02;101961.63;5029294;28;20079;-72
2023/09/27 11:10:09;;;;;;;14.73;9.02;;;;;;;24.81;62.00;101957.31;5029494;28;20038;-70
2023/09/27 11:12:35;;;;;;;14.20;9.52;;;;;;;24.81;61.63;101965.31;5028720;28;20049;-71
2023/09/27 11:15:10;;;;;;;15.55;10.05;;;;;;;24.88;60.59;101955.34;5032465;28;20030;-71
2023/09/27 11:17:36;;;;;;;13.65;9.30;;;;;;;24.99;61.13;101948.81;5032508;28;20057;-72
2023/09/27 11:20:11;;;;;;;13.65;9.82;;;;;;;25.02;60.74;101943.38;5032904;28;20076;-71
2023/09/27 11:22:45;;;;;;;12.40;9.18;;;;;;;24.96;60.59;101934.66;5032404;28;20033;-71
2023/09/27 11:25:36;;;;;;;14.55;10.00;;;;;;;25.18;59.48;101927.78;5032972;28;20511;-72
2023/09/27 11:28:14;;;;;;;15.10;11.13;;;;;;;24.74;60.35;101931.72;5033041;28;20091;-74
2023/09/27 11:30:39;;;;;;;16.70;10.70;;;;;;;24.99;60.27;101931.94;5032347;28;20508;-71
2023/09/27 11:33:08;;;;;;;21.20;9.95;;;;;;;25.16;60.02;101932.28;5032445;28;20041;-71
2023/09/27 11:35:33;;;;;;;17.63;10.35;;;;;;;24.67;60.48;101920.38;5032188;28;20095;-71